createdAt,value
2022-11-24T00:00:30.572Z,95225.69
2022-11-24T00:02:57.202Z,95229.53
2022-11-24T00:05:23.815Z,95241.81
2022-11-24T00:07:50.389Z,95246.19
2022-11-24T00:10:17.356Z,95243.28
2022-11-24T00:12:43.867Z,95242.00
2022-11-24T00:15:10.547Z,95237.59
2022-11-24T00:17:37.079Z,95244.09
2022-11-24T00:20:04.326Z,95254.81
2022-11-24T00:22:30.840Z,95252.78
2022-11-24T00:24:57.424Z,95250.59
2022-11-24T00:27:23.946Z,95242.09
2022-11-24T00:29:50.494Z,95256.47
2022-11-24T00:32:17.047Z,95253.63
2022-11-24T00:34:43.599Z,95262.03
2022-11-24T00:37:10.105Z,95267.81
2022-11-24T00:39:36.598Z,95267.19
2022-11-24T00:42:03.217Z,95275.78
2022-11-24T00:44:29.801Z,95272.84
2022-11-24T00:46:56.415Z,95280.72
2022-11-24T00:49:22.971Z,95276.03
2022-11-24T00:51:49.475Z,95295.47
2022-11-24T00:54:16.049Z,95303.41
2022-11-24T00:56:42.641Z,95304.16
2022-11-24T00:59:09.196Z,95302.59
2022-11-24T01:01:36.284Z,95321.00
2022-11-24T01:04:04.129Z,95328.97
2022-11-24T01:06:32.616Z,95334.91
2022-11-24T01:08:59.472Z,95333.66
2022-11-24T01:11:54.380Z,95336.28
2022-11-24T01:14:25.106Z,95348.69
2022-11-24T01:16:52.283Z,95335.22
2022-11-24T01:19:18.970Z,95351.06
2022-11-24T01:21:46.022Z,95360.31
2022-11-24T01:24:13.067Z,95353.91
2022-11-24T01:26:39.652Z,95361.44
2022-11-24T01:29:06.161Z,95363.63
2022-11-24T01:31:36.900Z,95364.53
2022-11-24T01:34:03.690Z,95367.09
2022-11-24T01:36:30.188Z,95365.31
2022-11-24T01:38:56.690Z,95364.78
2022-11-24T01:41:25.363Z,95368.16
2022-11-24T01:43:54.045Z,95368.69
2022-11-24T01:46:33.818Z,95374.94
2022-11-24T01:49:03.458Z,95385.44
2022-11-24T01:51:34.437Z,95379.94
2022-11-24T01:54:08.850Z,95390.13
2022-11-24T01:56:39.170Z,95391.94
2022-11-24T01:59:08.959Z,95406.16
2022-11-24T02:01:35.664Z,95408.97
2022-11-24T02:04:07.838Z,95409.69
2022-11-24T02:06:36.972Z,95409.06
2022-11-24T02:09:24.080Z,95409.78
2022-11-24T02:11:53.373Z,95409.59
2022-11-24T02:14:22.296Z,95417.91
2022-11-24T02:16:50.387Z,95423.03
2022-11-24T02:19:34.825Z,95438.72
2022-11-24T02:22:03.654Z,95430.94
2022-11-24T02:24:41.605Z,95437.56
2022-11-24T02:27:10.005Z,95439.34
2022-11-24T02:29:37.377Z,95428.00
2022-11-24T02:32:07.276Z,95426.13
2022-11-24T02:34:34.359Z,95435.47
2022-11-24T02:37:01.086Z,95442.09
2022-11-24T02:39:27.614Z,95447.66
2022-11-24T02:42:00.701Z,95449.03
2022-11-24T02:44:32.963Z,95447.47
2022-11-24T02:47:10.669Z,95457.66
2022-11-24T02:49:37.427Z,95461.09
2022-11-24T02:52:04.982Z,95462.28
2022-11-24T02:54:32.249Z,95457.53
2022-11-24T02:56:59.081Z,95463.03
2022-11-24T02:59:25.916Z,95463.03
2022-11-24T03:01:52.561Z,95466.47
2022-11-24T03:04:19.138Z,95467.22
2022-11-24T03:06:45.643Z,95473.72
2022-11-24T03:09:12.170Z,95466.88
2022-11-24T03:11:39.335Z,95477.50
2022-11-24T03:14:06.367Z,95486.84
2022-11-24T03:16:34.825Z,95479.41
2022-11-24T03:19:01.650Z,95487.59
2022-11-24T03:21:28.361Z,95489.81
2022-11-24T03:23:54.926Z,95482.53
2022-11-24T03:26:22.978Z,95493.28
2022-11-24T03:28:49.505Z,95485.91
2022-11-24T03:31:16.338Z,95498.53
2022-11-24T03:33:42.979Z,95500.63
2022-11-24T03:36:09.790Z,95509.22
2022-11-24T03:38:36.368Z,95506.19
2022-11-24T03:41:02.951Z,95511.34
2022-11-24T03:43:30.027Z,95504.19
2022-11-24T03:45:56.628Z,95496.81
2022-11-24T03:48:23.350Z,95503.56
2022-11-24T03:50:55.149Z,95492.41
2022-11-24T03:53:22.870Z,95499.66
2022-11-24T03:55:49.395Z,95494.53
2022-11-24T03:58:15.926Z,95515.88
2022-11-24T04:00:42.451Z,95512.94
2022-11-24T04:03:09.019Z,95512.94
2022-11-24T04:05:36.791Z,95509.25
2022-11-24T04:08:05.354Z,95515.13
2022-11-24T04:10:34.116Z,95527.00
2022-11-24T04:13:00.613Z,95527.00
2022-11-24T04:15:27.229Z,95523.44
2022-11-24T04:17:55.338Z,95518.09
2022-11-24T04:20:22.216Z,95538.78
2022-11-24T04:22:51.723Z,95535.31
2022-11-24T04:25:18.645Z,95526.06
2022-11-24T04:27:45.797Z,95526.56
2022-11-24T04:30:12.516Z,95542.66
2022-11-24T04:32:39.058Z,95541.59
2022-11-24T04:35:06.005Z,95543.16
2022-11-24T04:37:32.506Z,95546.22
2022-11-24T04:39:59.174Z,95543.38
2022-11-24T04:42:25.877Z,95555.66
2022-11-24T04:44:52.399Z,95552.81
2022-11-24T04:47:21.618Z,95552.91
2022-11-24T04:49:49.125Z,95543.56
2022-11-24T04:52:17.353Z,95561.56
2022-11-24T04:54:43.995Z,95556.19
2022-11-24T04:57:15.839Z,95553.75
2022-11-24T04:59:42.370Z,95557.25
2022-11-24T05:02:10.065Z,95565.78
2022-11-24T05:04:37.072Z,95568.16
2022-11-24T05:07:04.717Z,95553.16
2022-11-24T05:09:54.982Z,95569.75
2022-11-24T05:12:18.024Z,95584.13
2022-11-24T05:14:44.561Z,95589.09
2022-11-24T05:17:11.134Z,95589.81
2022-11-24T05:19:37.731Z,95600.47
2022-11-24T05:22:04.350Z,95596.75
2022-11-24T05:24:30.915Z,95590.69
2022-11-24T05:26:57.454Z,95611.81
2022-11-24T05:29:24.018Z,95605.19
2022-11-24T05:31:50.538Z,95603.81
2022-11-24T05:34:18.314Z,95598.25
2022-11-24T05:36:53.614Z,95605.72
2022-11-24T05:39:20.851Z,95611.41
2022-11-24T05:41:47.463Z,95626.63
2022-11-24T05:44:14.038Z,95618.09
2022-11-24T05:46:40.660Z,95616.97
2022-11-24T05:49:07.190Z,95614.84
2022-11-24T05:51:33.733Z,95626.88
2022-11-24T05:54:00.219Z,95619.06
2022-11-24T05:56:26.749Z,95628.53
2022-11-24T05:58:53.306Z,95633.47
2022-11-24T06:01:19.866Z,95638.44
2022-11-24T06:03:46.383Z,95634.22
2022-11-24T06:06:12.948Z,95642.84
2022-11-24T06:08:39.481Z,95634.53
2022-11-24T06:11:18.046Z,95654.31
2022-11-24T06:13:46.113Z,95657.13
2022-11-24T06:16:13.151Z,95653.13
2022-11-24T06:18:39.788Z,95658.41
2022-11-24T06:21:11.117Z,95667.03
2022-11-24T06:23:38.751Z,95665.00
2022-11-24T06:26:05.454Z,95670.59
2022-11-24T06:28:32.247Z,95654.50
2022-11-24T06:31:03.189Z,95667.84
2022-11-24T06:33:34.644Z,95672.16
2022-11-24T06:36:13.886Z,95670.06
2022-11-24T06:38:40.459Z,95668.59
2022-11-24T06:41:11.471Z,95677.22
2022-11-24T06:43:38.050Z,95678.81
2022-11-24T06:46:04.884Z,95681.94
2022-11-24T06:48:31.860Z,95686.25
2022-11-24T06:50:59.877Z,95693.31
2022-11-24T06:53:27.128Z,95690.38
2022-11-24T06:55:53.655Z,95690.78
2022-11-24T06:58:20.200Z,95685.31
2022-11-24T07:00:46.812Z,95694.38
2022-11-24T07:03:16.382Z,95695.75
2022-11-24T07:05:43.955Z,95698.44
2022-11-24T07:08:14.695Z,95696.56
2022-11-24T07:10:44.223Z,95693.00
2022-11-24T07:13:10.820Z,95697.41
2022-11-24T07:15:37.422Z,95705.59
2022-11-24T07:18:04.002Z,95689.00
2022-11-24T07:20:30.661Z,95706.56
2022-11-24T07:22:57.922Z,95704.56
2022-11-24T07:25:25.583Z,95705.50
2022-11-24T07:27:59.274Z,95695.59
2022-11-24T07:30:27.434Z,95704.88
2022-11-24T07:33:03.214Z,95703.41
2022-11-24T07:35:30.528Z,95708.34
2022-11-24T07:37:58.291Z,95711.19
2022-11-24T07:40:26.671Z,95706.16
2022-11-24T07:42:54.215Z,95708.44
2022-11-24T07:45:25.781Z,95704.03
2022-11-24T07:47:52.350Z,95712.97
2022-11-24T07:50:19.004Z,95694.88
2022-11-24T07:52:45.533Z,95695.59
2022-11-24T07:55:12.110Z,95711.91
2022-11-24T07:57:38.703Z,95717.06
2022-11-24T08:00:06.022Z,95710.94
2022-11-24T08:02:33.670Z,95707.56
2022-11-24T08:05:00.199Z,95710.94
2022-11-24T08:07:26.805Z,95705.38
2022-11-24T08:09:53.468Z,95704.09
2022-11-24T08:12:23.136Z,95697.25
2022-11-24T08:14:50.446Z,95703.13
2022-11-24T08:17:18.004Z,95708.16
2022-11-24T08:19:45.013Z,95700.28
2022-11-24T08:22:11.653Z,95702.06
2022-11-24T08:24:38.430Z,95697.94
2022-11-24T08:27:05.234Z,95701.06
2022-11-24T08:29:32.060Z,95702.44
2022-11-24T08:31:58.755Z,95705.16
2022-11-24T08:34:28.341Z,95703.78
2022-11-24T08:36:54.999Z,95708.53
2022-11-24T08:39:21.531Z,95714.50
2022-11-24T08:41:48.324Z,95721.03
2022-11-24T08:44:18.234Z,95728.28
2022-11-24T08:46:45.249Z,95728.09
2022-11-24T08:49:14.508Z,95723.31
2022-11-24T08:51:41.745Z,95725.88
2022-11-24T08:54:10.327Z,95730.09
2022-11-24T08:56:37.314Z,95717.34
2022-11-24T08:59:03.931Z,95719.66
2022-11-24T09:01:31.399Z,95704.88
2022-11-24T09:03:58.565Z,95701.22
2022-11-24T09:06:27.581Z,95705.91
2022-11-24T09:08:55.453Z,95704.72
2022-11-24T09:11:23.021Z,95713.38
2022-11-24T09:13:50.096Z,95713.47
2022-11-24T09:16:19.644Z,95705.53
2022-11-24T09:18:47.251Z,95718.81
2022-11-24T09:21:16.504Z,95719.72
2022-11-24T09:23:44.750Z,95711.19
2022-11-24T09:26:14.410Z,95724.88
2022-11-24T09:28:41.551Z,95710.56
2022-11-24T09:31:11.471Z,95723.78
2022-11-24T09:33:39.202Z,95716.72
2022-11-24T09:36:06.323Z,95713.88
2022-11-24T09:38:33.591Z,95728.47
2022-11-24T09:41:18.196Z,95724.44
2022-11-24T09:44:09.802Z,95721.69
2022-11-24T09:46:51.567Z,95721.06
2022-11-24T09:49:27.587Z,95723.25
2022-11-24T09:51:56.239Z,95713.81
2022-11-24T09:54:29.855Z,95726.00
2022-11-24T09:57:00.889Z,95715.53
2022-11-24T09:59:29.702Z,95735.84
2022-11-24T10:01:56.688Z,95722.41
2022-11-24T10:04:39.294Z,95736.13
2022-11-24T10:07:12.043Z,95740.53
2022-11-24T10:09:57.639Z,95737.78
2022-11-24T10:13:15.303Z,95729.41
2022-11-24T10:15:54.000Z,95743.66
2022-11-24T10:18:35.564Z,95736.66
2022-11-24T10:21:31.505Z,95748.16
2022-11-24T10:24:19.731Z,95754.03
2022-11-24T10:27:00.802Z,95749.53
2022-11-24T10:29:37.348Z,95749.81
2022-11-24T10:32:13.257Z,95766.19
2022-11-24T10:34:45.472Z,95768.28
2022-11-24T10:37:15.920Z,95763.88
2022-11-24T10:40:06.268Z,95779.50
2022-11-24T10:42:38.184Z,95775.75
2022-11-24T10:45:17.537Z,95779.88
2022-11-24T10:47:45.172Z,95776.06
2022-11-24T10:50:31.274Z,95791.78
2022-11-24T10:53:22.564Z,95795.94
2022-11-24T10:55:55.334Z,95790.72
2022-11-24T10:58:39.008Z,95789.00
2022-11-24T11:01:14.600Z,95787.88
2022-11-24T11:03:53.826Z,95792.63
2022-11-24T11:06:31.378Z,95786.75
2022-11-24T11:09:07.431Z,95782.31
2022-11-24T11:11:35.851Z,95777.59
2022-11-24T11:14:04.946Z,95785.47
2022-11-24T11:16:43.523Z,95787.59
2022-11-24T11:19:54.274Z,95783.59
2022-11-24T11:22:31.592Z,95790.19
2022-11-24T11:25:22.110Z,95787.66
2022-11-24T11:27:49.059Z,95789.88
2022-11-24T11:35:49.298Z,95794.91
2022-11-24T11:38:15.870Z,95791.25
2022-11-24T11:40:43.964Z,95793.34
2022-11-24T11:43:34.571Z,95794.91
2022-11-24T11:46:12.194Z,95806.69
2022-11-24T11:48:44.067Z,95802.47
2022-11-24T11:51:29.813Z,95801.22
2022-11-24T11:54:30.426Z,95806.28
2022-11-24T11:57:07.890Z,95794.81
2022-11-24T11:59:59.027Z,95808.28
2022-11-24T12:02:53.616Z,95812.38
2022-11-24T12:05:26.581Z,95803.66
2022-11-24T12:08:20.491Z,95810.75
2022-11-24T12:11:06.141Z,95814.44
2022-11-24T12:13:52.688Z,95815.16
2022-11-24T12:16:27.677Z,95828.72
2022-11-24T12:18:58.411Z,95827.38
2022-11-24T12:21:31.372Z,95824.75
2022-11-24T12:24:50.115Z,95820.41
2022-11-24T12:27:52.541Z,95819.34
2022-11-24T12:30:22.020Z,95827.25
2022-11-24T12:32:48.484Z,95833.06
2022-11-24T12:35:33.549Z,95827.78
2022-11-24T12:38:33.906Z,95833.78
2022-11-24T12:41:45.761Z,95841.91
2022-11-24T12:44:40.374Z,95842.22
2022-11-24T12:47:18.585Z,95845.78
2022-11-24T12:50:27.971Z,95843.06
2022-11-24T12:53:03.889Z,95838.13
2022-11-24T12:55:33.747Z,95836.94
2022-11-24T12:58:50.202Z,95828.94
2022-11-24T13:01:32.260Z,95845.28
2022-11-24T13:04:10.577Z,95840.44
2022-11-24T13:07:01.330Z,95840.84
2022-11-24T13:09:27.924Z,95843.34
2022-11-24T13:12:14.195Z,95843.47
2022-11-24T13:14:46.042Z,95846.19
2022-11-24T13:17:47.622Z,95846.00
2022-11-24T13:20:19.665Z,95852.53
2022-11-24T13:22:55.382Z,95845.38
2022-11-24T13:25:28.658Z,95849.16
2022-11-24T13:28:00.147Z,95857.16
2022-11-24T13:30:35.805Z,95863.59
2022-11-24T13:33:02.355Z,95860.88
2022-11-24T13:35:29.786Z,95855.91
2022-11-24T13:37:56.460Z,95862.44
2022-11-24T13:40:23.099Z,95863.91
2022-11-24T13:43:01.513Z,95856.97
2022-11-24T13:45:44.983Z,95863.06
2022-11-24T13:48:21.138Z,95856.81
2022-11-24T13:50:51.188Z,95859.81
2022-11-24T13:53:45.851Z,95857.56
2022-11-24T13:56:12.335Z,95867.72
2022-11-24T13:58:39.943Z,95870.75
2022-11-24T14:01:21.812Z,95868.44
2022-11-24T14:04:33.456Z,95876.63
2022-11-24T14:07:12.065Z,95860.00
2022-11-24T14:09:50.136Z,95871.81
2022-11-24T14:12:25.356Z,95877.31
2022-11-24T14:14:55.675Z,95866.66
2022-11-24T14:17:23.550Z,95872.13
2022-11-24T14:19:55.436Z,95867.25
2022-11-24T14:22:34.673Z,95875.56
2022-11-24T14:25:02.897Z,95869.97
2022-11-24T14:27:40.032Z,95862.28
2022-11-24T14:30:09.481Z,95880.41
2022-11-24T14:32:37.803Z,95874.59
2022-11-24T14:35:25.486Z,95880.78
2022-11-24T14:37:52.616Z,95885.97
2022-11-24T14:40:49.049Z,95903.88
2022-11-24T14:43:21.893Z,95899.75
2022-11-24T14:45:55.102Z,95911.22
2022-11-24T14:48:33.425Z,95907.66
2022-11-24T14:51:10.561Z,95913.06
2022-11-24T14:53:46.920Z,95927.28
2022-11-24T14:56:34.453Z,95924.47
2022-11-24T14:59:01.808Z,95916.03
2022-11-24T15:01:34.502Z,95911.72
2022-11-24T15:05:02.007Z,95921.31
2022-11-24T15:07:27.593Z,95933.19
2022-11-24T15:09:59.967Z,95940.47
2022-11-24T15:12:39.094Z,95937.63
2022-11-24T15:15:20.423Z,95946.53
2022-11-24T15:17:49.802Z,95937.53
2022-11-24T15:20:35.138Z,95949.84
2022-11-24T15:23:30.160Z,95939.72
2022-11-24T15:25:58.348Z,95947.00
2022-11-24T15:28:26.030Z,95952.19
2022-11-24T15:30:54.685Z,95943.81
2022-11-24T15:33:22.627Z,95952.47
2022-11-24T15:35:49.425Z,95949.50
2022-11-24T15:38:16.520Z,95946.16
2022-11-24T15:40:45.988Z,95946.59
2022-11-24T15:43:27.592Z,95949.44
2022-11-24T15:45:54.220Z,95955.53
2022-11-24T15:48:20.823Z,95956.66
2022-11-24T15:50:48.443Z,95957.91
2022-11-24T15:53:20.222Z,95950.94
2022-11-24T15:55:47.423Z,95954.53
2022-11-24T15:58:14.575Z,95961.44
2022-11-24T16:00:42.540Z,95968.94
2022-11-24T16:03:38.765Z,95980.53
2022-11-24T16:05:57.087Z,95967.09
2022-11-24T16:08:23.665Z,95960.19
2022-11-24T16:10:51.240Z,95962.59
2022-11-24T16:13:17.776Z,95975.13
2022-11-24T16:15:45.926Z,95976.72
2022-11-24T16:18:14.999Z,95978.59
2022-11-24T16:20:41.549Z,95985.25
2022-11-24T16:23:08.097Z,95983.25
2022-11-24T16:25:34.679Z,95982.50
2022-11-24T16:28:01.322Z,95980.41
2022-11-24T16:30:27.836Z,95991.91
2022-11-24T16:32:54.365Z,95987.59
2022-11-24T16:35:20.940Z,95997.56
2022-11-24T16:37:49.567Z,95994.84
2022-11-24T16:40:16.272Z,95994.25
2022-11-24T16:42:42.866Z,96003.09
2022-11-24T16:45:12.294Z,95992.22
2022-11-24T16:47:41.027Z,95999.41
2022-11-24T16:50:11.294Z,96009.34
2022-11-24T16:52:38.481Z,96015.13
2022-11-24T16:55:06.892Z,96016.94
2022-11-24T16:57:33.549Z,96015.81
2022-11-24T17:00:00.138Z,96012.34
2022-11-24T17:02:26.830Z,96001.81
2022-11-24T17:04:53.437Z,96006.78
2022-11-24T17:07:20.581Z,95997.38
2022-11-24T17:09:47.229Z,96002.56
2022-11-24T17:12:13.734Z,96000.22
2022-11-24T17:14:40.410Z,95996.31
2022-11-24T17:17:06.953Z,96000.00
2022-11-24T17:19:33.496Z,95983.31
2022-11-24T17:22:00.134Z,95994.59
2022-11-24T17:24:26.829Z,95996.59
2022-11-24T17:26:53.361Z,95995.84
2022-11-24T17:29:20.082Z,95992.50
2022-11-24T17:31:47.524Z,95998.41
2022-11-24T17:34:14.154Z,95995.78
2022-11-24T17:36:41.980Z,95998.13
2022-11-24T17:39:09.473Z,96006.66
2022-11-24T17:41:36.118Z,96012.34
2022-11-24T17:44:03.165Z,96011.59
2022-11-24T17:46:30.943Z,95999.16
2022-11-24T17:48:58.055Z,96009.72
2022-11-24T17:51:25.951Z,96006.25
2022-11-24T17:53:54.633Z,96009.84
2022-11-24T17:56:23.820Z,96015.53
2022-11-24T17:58:55.079Z,96013.28
2022-11-24T18:01:22.666Z,96011.19
2022-11-24T18:03:53.386Z,96016.25
2022-11-24T18:06:21.072Z,96002.22
2022-11-24T18:08:47.936Z,95998.63
2022-11-24T18:11:19.894Z,96016.13
2022-11-24T18:14:03.122Z,96018.13
2022-11-24T18:16:32.484Z,96018.66
2022-11-24T18:19:10.076Z,96016.56
2022-11-24T18:21:38.899Z,96011.47
2022-11-24T18:24:06.431Z,96016.34
2022-11-24T18:26:32.999Z,96012.63
2022-11-24T18:28:59.802Z,96020.28
2022-11-24T18:31:26.712Z,96010.94
2022-11-24T18:33:53.561Z,96016.38
2022-11-24T18:36:29.988Z,96018.13
2022-11-24T18:38:57.752Z,96024.50
2022-11-24T18:41:24.342Z,96022.28
2022-11-24T18:43:50.914Z,96005.81
2022-11-24T18:46:18.285Z,96023.06
2022-11-24T18:48:45.550Z,96014.97
2022-11-24T18:51:16.095Z,96016.81
2022-11-24T18:53:44.360Z,96017.34
2022-11-24T18:56:16.423Z,96019.91
2022-11-24T18:58:43.726Z,96024.13
2022-11-24T19:01:11.801Z,96016.84
2022-11-24T19:03:50.710Z,96008.22
2022-11-24T19:06:20.171Z,96017.13
2022-11-24T19:08:47.736Z,96010.88
2022-11-24T19:11:19.685Z,96006.81
2022-11-24T19:13:47.603Z,96010.16
2022-11-24T19:16:15.621Z,96004.22
2022-11-24T19:18:42.464Z,96006.13
2022-11-24T19:21:09.457Z,96011.03
2022-11-24T19:23:36.082Z,96003.16
2022-11-24T19:26:04.520Z,96009.72
2022-11-24T19:28:31.522Z,96005.25
2022-11-24T19:31:06.776Z,95996.16
2022-11-24T19:33:33.804Z,96004.16
2022-11-24T19:36:02.516Z,96011.69
2022-11-24T19:38:30.661Z,96004.06
2022-11-24T19:41:05.839Z,96012.56
2022-11-24T19:43:33.451Z,96018.97
2022-11-24T19:46:19.458Z,96016.88
2022-11-24T19:48:50.061Z,96018.47
2022-11-24T19:51:18.822Z,96021.81
2022-11-24T19:53:45.792Z,96026.63
2022-11-24T19:56:13.297Z,96024.38
2022-11-24T19:58:40.879Z,96027.84
2022-11-24T20:01:13.271Z,96025.47
2022-11-24T20:03:41.173Z,96036.69
2022-11-24T20:06:09.535Z,96030.53
2022-11-24T20:08:37.446Z,96023.22
2022-11-24T20:11:07.183Z,96024.13
2022-11-24T20:13:35.325Z,96033.97
2022-11-24T20:16:26.301Z,96031.59
2022-11-24T20:18:55.308Z,96033.47
2022-11-24T20:21:25.592Z,96026.16
2022-11-24T20:23:57.114Z,96036.50
2022-11-24T20:26:25.834Z,96036.00
2022-11-24T20:28:55.402Z,96030.22
2022-11-24T20:31:25.054Z,96031.56
2022-11-24T20:33:51.872Z,96029.44
2022-11-24T20:36:24.373Z,96027.97
2022-11-24T20:38:52.397Z,96027.13
2022-11-24T20:41:21.705Z,96027.84
2022-11-24T20:43:49.383Z,96025.78
2022-11-24T20:46:22.430Z,96033.38
2022-11-24T20:48:49.315Z,96032.28
2022-11-24T20:51:21.588Z,96032.75
2022-11-24T20:53:50.092Z,96028.78
2022-11-24T20:56:25.249Z,96022.59
2022-11-24T20:58:52.616Z,96008.13
2022-11-24T21:01:22.632Z,96020.41
2022-11-24T21:03:56.405Z,96015.09
2022-11-24T21:06:23.679Z,96017.19
2022-11-24T21:08:50.992Z,96021.97
2022-11-24T21:11:19.056Z,96022.25
2022-11-24T21:13:46.309Z,96020.38
2022-11-24T21:16:34.511Z,96019.16
2022-11-24T21:19:04.083Z,96007.56
2022-11-24T21:21:36.004Z,96017.06
2022-11-24T21:24:06.497Z,96020.16
2022-11-24T21:26:36.963Z,96016.44
2022-11-24T21:29:04.220Z,96006.63
2022-11-24T21:31:31.059Z,96009.56
2022-11-24T21:33:57.655Z,96005.91
2022-11-24T21:36:26.316Z,96013.50
2022-11-24T21:38:55.504Z,96017.53
2022-11-24T21:41:23.667Z,96014.94
2022-11-24T21:43:51.715Z,96004.88
2022-11-24T21:46:18.330Z,96008.16
2022-11-24T21:48:44.988Z,96011.63
2022-11-24T21:51:14.337Z,96008.66
2022-11-24T21:53:45.584Z,96010.59
2022-11-24T21:56:14.361Z,96000.69
2022-11-24T21:58:46.391Z,96017.19
2022-11-24T22:01:13.877Z,96012.75
2022-11-24T22:03:40.729Z,96009.50
2022-11-24T22:06:07.720Z,96019.78
2022-11-24T22:08:34.283Z,96016.53
2022-11-24T22:11:05.892Z,96020.44
2022-11-24T22:13:32.999Z,96022.25
2022-11-24T22:16:05.873Z,96018.09
2022-11-24T22:18:34.627Z,96022.53
2022-11-24T22:21:02.813Z,96024.19
2022-11-24T22:23:31.085Z,96020.91
2022-11-24T22:26:05.757Z,96033.34
2022-11-24T22:28:36.528Z,96023.25
2022-11-24T22:31:05.375Z,96031.16
2022-11-24T22:33:32.226Z,96016.00
2022-11-24T22:36:00.361Z,96017.75
2022-11-24T22:38:28.517Z,96009.13
2022-11-24T22:40:55.244Z,96018.69
2022-11-24T22:43:23.207Z,95995.97
2022-11-24T22:45:49.960Z,96015.56
2022-11-24T22:48:16.639Z,96016.78
2022-11-24T22:50:43.162Z,96018.44
2022-11-24T22:53:09.809Z,96009.75
2022-11-24T22:55:36.485Z,96012.69
2022-11-24T22:58:03.084Z,95997.28
2022-11-24T23:00:29.723Z,95996.69
2022-11-24T23:02:56.393Z,96013.44
2022-11-24T23:05:22.968Z,96003.66
2022-11-24T23:07:49.697Z,96007.34
2022-11-24T23:10:16.378Z,96007.97
2022-11-24T23:12:42.898Z,96015.84
2022-11-24T23:15:09.697Z,96009.47
2022-11-24T23:17:36.274Z,96020.91
2022-11-24T23:20:02.793Z,96014.34
2022-11-24T23:22:29.497Z,96009.91
2022-11-24T23:24:56.039Z,96005.03
2022-11-24T23:27:22.742Z,96012.59
2022-11-24T23:29:49.225Z,96008.88
2022-11-24T23:32:15.763Z,96018.53
2022-11-24T23:34:42.473Z,96007.38
2022-11-24T23:37:09.070Z,96007.66
2022-11-24T23:39:35.647Z,96004.28
2022-11-24T23:42:02.241Z,95989.56
2022-11-24T23:44:28.797Z,96006.81
2022-11-24T23:46:55.600Z,96001.00
2022-11-24T23:49:22.176Z,95989.44
2022-11-24T23:51:48.676Z,95986.34
2022-11-24T23:54:15.151Z,95990.50
2022-11-24T23:56:41.771Z,95993.19
2022-11-24T23:59:10.652Z,96001.50
